Schedule Details


Flight Number: CTN492
Departure: Kastela (LDSP) at 14:00
Arrival: Gatwick (EGKK) at 15:35
Route: ZDA UN606 PUL P11 ROTAR L611 SUXAN UL613 RLP UT10 NITAR UQ220 KESAX UT421 KUNAV

Weather Information
LDSP 100000Z AUTO 06004KT 010V100 9999 FEW045/// 12/05 Q1020
EGKK 092350Z 08005KT CAVOK 09/05 Q1025
Schedule Frequency

Route Map